createdAt,value
2022-10-11T00:01:01.185Z,99.90
2022-10-11T00:03:37.060Z,99.90
2022-10-11T00:06:09.318Z,99.90
2022-10-11T00:08:38.171Z,99.90
2022-10-11T00:11:07.819Z,99.90
2022-10-11T00:13:36.014Z,99.90
2022-10-11T00:16:15.588Z,99.90
2022-10-11T00:18:51.459Z,99.90
2022-10-11T00:21:30.688Z,99.90
2022-10-11T00:24:11.842Z,99.90
2022-10-11T00:26:53.152Z,99.90
2022-10-11T00:29:30.948Z,99.90
2022-10-11T00:32:08.706Z,99.90
2022-10-11T00:34:46.823Z,99.90
2022-10-11T00:37:23.566Z,99.90
2022-10-11T00:40:00.376Z,99.90
2022-10-11T00:42:38.871Z,99.90
2022-10-11T00:45:31.173Z,99.90
2022-10-11T00:48:22.649Z,99.90
2022-10-11T00:51:03.056Z,99.90
2022-10-11T00:53:43.956Z,99.90
2022-10-11T00:56:26.200Z,99.90
2022-10-11T00:59:20.536Z,99.90
2022-10-11T01:01:58.364Z,99.90
2022-10-11T01:04:36.560Z,99.90
2022-10-11T01:07:15.461Z,99.90
2022-10-11T01:09:51.689Z,99.90
2022-10-11T01:12:31.063Z,99.90
2022-10-11T01:15:24.465Z,99.90
2022-10-11T01:18:24.995Z,99.90
2022-10-11T01:21:14.380Z,99.90
2022-10-11T01:24:08.769Z,99.90
2022-10-11T01:27:13.095Z,99.90
2022-10-11T01:30:16.933Z,99.90
2022-10-11T01:33:20.198Z,99.90
2022-10-11T01:35:56.635Z,99.90
2022-10-11T01:39:09.690Z,99.90
2022-10-11T01:41:51.781Z,99.90
2022-10-11T01:44:32.309Z,99.90
2022-10-11T01:47:10.352Z,99.90
2022-10-11T01:49:59.982Z,99.90
2022-10-11T01:52:43.243Z,99.90
2022-10-11T01:55:51.166Z,99.90
2022-10-11T01:58:47.358Z,99.90
2022-10-11T02:01:55.108Z,99.90
2022-10-11T02:04:36.171Z,99.90
2022-10-11T02:07:45.608Z,99.90
2022-10-11T02:10:46.200Z,99.90
2022-10-11T02:13:32.976Z,99.90
2022-10-11T02:16:14.564Z,99.90
2022-10-11T02:18:54.724Z,99.90
2022-10-11T02:21:36.370Z,99.90
2022-10-11T02:24:21.796Z,99.90
2022-10-11T02:27:01.287Z,99.90
2022-10-11T02:29:42.498Z,99.90
2022-10-11T02:32:24.051Z,99.90
2022-10-11T02:35:03.070Z,99.90
2022-10-11T02:37:53.011Z,99.90
2022-10-11T02:40:35.419Z,99.90
2022-10-11T02:43:24.183Z,99.90
2022-10-11T02:46:04.239Z,99.90
2022-10-11T02:48:44.279Z,99.90
2022-10-11T02:51:22.173Z,99.90
2022-10-11T02:53:58.609Z,99.90
2022-10-11T02:56:36.398Z,99.90
2022-10-11T02:59:14.591Z,99.90
2022-10-11T03:01:55.371Z,99.90
2022-10-11T03:04:34.669Z,99.90
2022-10-11T03:07:11.614Z,99.90
2022-10-11T03:09:48.297Z,99.90
2022-10-11T03:12:25.741Z,99.90
2022-10-11T03:15:02.516Z,99.90
2022-10-11T03:17:39.056Z,99.90
2022-10-11T03:20:17.036Z,99.90
2022-10-11T03:22:58.416Z,99.90
2022-10-11T03:25:36.793Z,99.90
2022-10-11T03:28:14.906Z,99.90
2022-10-11T03:30:53.195Z,99.90
2022-10-11T03:33:31.222Z,99.90
2022-10-11T03:36:09.576Z,99.90
2022-10-11T03:38:46.340Z,99.90
2022-10-11T03:41:23.526Z,99.90
2022-10-11T03:44:00.752Z,99.90
2022-10-11T03:46:41.555Z,99.90
2022-10-11T03:49:20.428Z,99.90
2022-10-11T03:51:58.588Z,99.90
2022-10-11T03:54:36.819Z,99.90
2022-10-11T03:57:15.981Z,99.90
2022-10-11T03:59:57.869Z,99.90
2022-10-11T04:02:39.095Z,99.90
2022-10-11T04:05:17.134Z,99.90
2022-10-11T04:07:54.512Z,99.90
2022-10-11T04:10:32.603Z,99.90
2022-10-11T04:13:12.428Z,99.90
2022-10-11T04:15:50.356Z,99.90
2022-10-11T04:18:28.492Z,99.90
2022-10-11T04:21:08.980Z,99.90
2022-10-11T04:23:45.263Z,99.90
2022-10-11T04:26:21.796Z,99.90
2022-10-11T04:28:59.916Z,99.90
2022-10-11T04:31:36.767Z,99.90
2022-10-11T04:34:16.979Z,99.90
2022-10-11T04:36:54.357Z,99.90
2022-10-11T04:39:31.193Z,99.90
2022-10-11T04:42:09.526Z,99.90
2022-10-11T04:44:49.630Z,99.90
2022-10-11T04:47:29.009Z,99.90
2022-10-11T04:50:07.342Z,99.90
2022-10-11T04:52:45.152Z,99.90
2022-10-11T04:55:24.269Z,99.90
2022-10-11T04:58:00.987Z,99.90
2022-10-11T05:00:39.739Z,99.90
2022-10-11T05:03:17.874Z,99.90
2022-10-11T05:05:56.049Z,99.90
2022-10-11T05:08:36.773Z,99.90
2022-10-11T05:11:16.837Z,99.90
2022-10-11T05:13:57.928Z,99.90
2022-10-11T05:16:36.208Z,99.90
2022-10-11T05:19:17.658Z,99.90
2022-10-11T05:21:56.047Z,99.90
2022-10-11T05:24:34.836Z,99.90
2022-10-11T05:27:14.959Z,99.90
2022-10-11T05:29:52.665Z,99.90
2022-10-11T05:32:29.528Z,99.90
2022-10-11T05:35:10.430Z,99.90
2022-10-11T05:37:48.960Z,99.90
2022-10-11T05:40:29.345Z,99.90
2022-10-11T05:43:05.942Z,99.90
2022-10-11T05:45:44.732Z,99.90
2022-10-11T05:48:24.242Z,99.90
2022-10-11T05:51:03.431Z,99.90
2022-10-11T05:53:44.381Z,99.90
2022-10-11T05:56:28.016Z,99.90
2022-10-11T05:59:06.296Z,99.90
2022-10-11T06:01:44.021Z,99.90
2022-10-11T06:04:20.781Z,99.90
2022-10-11T06:06:58.120Z,99.90
2022-10-11T06:09:35.756Z,99.90
2022-10-11T06:12:16.033Z,99.90
2022-10-11T06:14:55.600Z,99.90
2022-10-11T06:17:52.945Z,99.90
2022-10-11T06:20:50.524Z,99.90
2022-10-11T06:24:01.156Z,99.90
2022-10-11T06:26:57.247Z,99.90
2022-10-11T06:29:35.360Z,99.90
2022-10-11T06:32:30.944Z,99.90
2022-10-11T06:35:09.007Z,99.90
2022-10-11T06:38:10.379Z,99.90
2022-10-11T06:41:18.104Z,99.90
2022-10-11T06:44:14.927Z,99.90
2022-10-11T06:47:09.443Z,99.90
2022-10-11T06:50:05.644Z,99.90
2022-10-11T06:53:01.690Z,99.90
2022-10-11T06:56:06.168Z,99.90
2022-10-11T06:58:59.884Z,99.90
2022-10-11T07:02:36.868Z,99.90
2022-10-11T07:16:05.531Z,99.90
2022-10-11T07:19:02.067Z,99.90
2022-10-11T07:21:54.524Z,99.90
2022-10-11T07:24:31.773Z,99.90
2022-10-11T07:27:38.456Z,99.90
2022-10-11T07:30:35.830Z,99.90
2022-10-11T07:33:33.025Z,99.90
2022-10-11T07:36:28.106Z,99.90
2022-10-11T07:39:23.169Z,99.90
2022-10-11T07:42:22.537Z,99.90
2022-10-11T07:44:59.116Z,99.90
2022-10-11T07:47:37.958Z,99.90
2022-10-11T07:50:13.944Z,99.90
2022-10-11T07:53:08.349Z,99.90
2022-10-11T07:56:04.482Z,99.90
2022-10-11T07:59:00.366Z,99.90
2022-10-11T08:01:51.568Z,99.90
2022-10-11T08:04:56.215Z,99.90
2022-10-11T08:07:48.845Z,99.90
2022-10-11T08:10:43.341Z,99.90
2022-10-11T08:13:42.278Z,99.90
2022-10-11T08:16:19.061Z,99.90
2022-10-11T08:19:16.098Z,99.90
2022-10-11T08:22:07.794Z,99.90
2022-10-11T08:25:06.830Z,99.90
2022-10-11T08:28:18.046Z,99.90
2022-10-11T08:31:16.939Z,99.90
2022-10-11T08:33:53.476Z,99.90
2022-10-11T08:37:03.220Z,99.90
2022-10-11T08:39:42.330Z,99.90
2022-10-11T08:45:11.952Z,99.90
2022-10-11T08:49:37.424Z,99.90
2022-10-11T08:52:49.910Z,99.90
2022-10-11T08:55:49.263Z,99.90
2022-10-11T08:59:12.776Z,99.90
2022-10-11T09:03:03.106Z,99.90
2022-10-11T09:06:00.258Z,99.90
2022-10-11T09:09:08.110Z,99.90
2022-10-11T09:12:10.082Z,99.90
2022-10-11T09:15:16.075Z,99.90
2022-10-11T09:18:11.217Z,99.90
2022-10-11T09:21:00.605Z,99.90
2022-10-11T09:23:37.637Z,99.90
2022-10-11T09:26:15.146Z,99.90
2022-10-11T09:29:00.923Z,99.90
2022-10-11T09:31:30.543Z,99.90
2022-10-11T09:34:11.851Z,99.90
2022-10-11T09:36:57.844Z,99.90
2022-10-11T09:39:37.087Z,99.90
2022-10-11T09:42:08.177Z,99.90
2022-10-11T09:44:38.013Z,99.90
2022-10-11T09:47:10.660Z,99.90
2022-10-11T09:49:50.785Z,99.90
2022-10-11T09:52:22.671Z,99.90
2022-10-11T09:55:00.639Z,99.90
2022-10-11T09:57:35.056Z,99.90
2022-10-11T10:00:12.527Z,99.90
2022-10-11T10:02:49.432Z,99.90
2022-10-11T10:05:23.512Z,99.90
2022-10-11T10:08:24.004Z,99.90
2022-10-11T10:11:04.690Z,99.90
2022-10-11T10:13:46.680Z,99.90
2022-10-11T10:16:35.256Z,99.90
2022-10-11T10:19:22.028Z,99.90
2022-10-11T10:21:53.163Z,99.90
2022-10-11T10:24:38.973Z,99.90
2022-10-11T10:27:24.742Z,99.90
2022-10-11T10:30:02.227Z,99.90
2022-10-11T10:32:34.343Z,99.90
2022-10-11T10:35:32.185Z,99.90
2022-10-11T10:38:26.885Z,99.90
2022-10-11T10:40:58.271Z,99.90
2022-10-11T10:43:28.937Z,99.60
2022-10-11T10:45:59.978Z,99.10
2022-10-11T10:49:41.190Z,97.90
2022-10-11T10:52:10.578Z,97.40
2022-10-11T10:55:19.811Z,96.70
2022-10-11T10:58:25.258Z,96.90
2022-10-11T11:01:09.157Z,96.10
2022-10-11T11:03:52.495Z,95.30
2022-10-11T11:06:34.207Z,95.10
2022-10-11T11:09:31.378Z,95.20
2022-10-11T11:12:06.305Z,94.10
2022-10-11T11:14:59.597Z,93.40
2022-10-11T11:18:07.715Z,92.30
2022-10-11T11:21:00.772Z,91.20
2022-10-11T11:23:39.466Z,91.30
2022-10-11T11:26:16.235Z,90.90
2022-10-11T11:29:06.825Z,90.70
2022-10-11T11:31:38.828Z,90.40
2022-10-11T11:34:10.659Z,87.60
2022-10-11T11:36:49.820Z,86.40
2022-10-11T11:39:25.476Z,83.70
2022-10-11T11:42:07.705Z,83.10
2022-10-11T11:44:49.781Z,82.50
2022-10-11T11:47:22.191Z,83.80
2022-10-11T11:49:58.097Z,82.90
2022-10-11T11:52:35.956Z,82.10
2022-10-11T11:55:13.529Z,81.30
2022-10-11T11:57:53.020Z,80.80
2022-10-11T12:00:25.270Z,81.50
2022-10-11T12:03:03.723Z,82.20
2022-10-11T12:05:36.210Z,82.20
2022-10-11T12:08:23.078Z,81.30
2022-10-11T12:10:51.324Z,80.50
2022-10-11T12:13:34.849Z,80.30
2022-10-11T12:16:19.237Z,79.20
2022-10-11T12:18:56.594Z,78.30
2022-10-11T12:21:38.974Z,78.50
2022-10-11T12:24:10.095Z,78.20
2022-10-11T12:26:46.177Z,77.10
2022-10-11T12:29:18.292Z,73.90
2022-10-11T12:32:11.390Z,72.00
2022-10-11T12:34:44.723Z,71.50
2022-10-11T12:37:18.883Z,70.40
2022-10-11T12:39:58.945Z,68.80
2022-10-11T12:42:35.414Z,68.10
2022-10-11T12:45:12.934Z,68.40
2022-10-11T12:48:09.475Z,67.70
2022-10-11T12:50:37.796Z,67.40
2022-10-11T12:53:30.439Z,66.00
2022-10-11T12:56:13.305Z,66.10
2022-10-11T12:58:46.522Z,66.60
2022-10-11T13:01:19.203Z,66.80
2022-10-11T13:03:50.782Z,66.70
2022-10-11T13:06:20.821Z,66.60
2022-10-11T13:08:54.818Z,66.30
2022-10-11T13:11:32.189Z,66.10
2022-10-11T13:14:19.272Z,66.10
2022-10-11T13:17:02.863Z,64.10
2022-10-11T13:19:33.974Z,63.40
2022-10-11T13:22:06.402Z,63.40
2022-10-11T13:24:37.979Z,62.60
2022-10-11T13:27:10.237Z,62.50
2022-10-11T13:29:45.496Z,62.60
2022-10-11T13:32:22.041Z,62.20
2022-10-11T13:37:28.708Z,61.30
2022-10-11T13:39:57.561Z,60.80
2022-10-11T13:42:32.178Z,61.00
2022-10-11T13:45:01.199Z,60.50
2022-10-11T13:47:31.758Z,60.40
2022-10-11T13:50:24.099Z,60.00
2022-10-11T13:53:09.502Z,60.00
2022-10-11T13:58:16.237Z,58.50
2022-10-11T14:01:17.657Z,58.60
2022-10-11T14:04:12.687Z,58.10
2022-10-11T14:06:47.708Z,58.10
2022-10-11T14:09:22.129Z,58.20
2022-10-11T14:11:51.508Z,58.00
2022-10-11T14:14:34.803Z,58.00
2022-10-11T14:17:17.351Z,57.70
2022-10-11T14:19:48.400Z,57.30
2022-10-11T14:22:18.214Z,57.50
2022-10-11T14:24:49.298Z,57.60
2022-10-11T14:27:22.571Z,57.60
2022-10-11T14:30:19.837Z,57.50
2022-10-11T14:32:42.333Z,57.60
2022-10-11T14:35:18.113Z,57.20
2022-10-11T14:37:46.821Z,57.40
2022-10-11T14:40:18.291Z,57.50
2022-10-11T14:42:46.318Z,57.70
2022-10-11T14:45:14.517Z,57.90
2022-10-11T14:47:43.255Z,57.80
2022-10-11T14:50:31.985Z,57.70
2022-10-11T14:53:01.535Z,57.60
2022-10-11T14:55:31.106Z,57.50
2022-10-11T14:57:59.091Z,57.40
2022-10-11T15:00:29.785Z,57.20
2022-10-11T15:03:00.224Z,57.80
2022-10-11T15:05:33.969Z,57.20
2022-10-11T15:08:04.880Z,57.40
2022-10-11T15:10:41.580Z,57.50
2022-10-11T15:13:09.986Z,57.30
2022-10-11T15:15:41.296Z,57.40
2022-10-11T15:18:21.219Z,57.70
2022-10-11T15:20:49.556Z,57.80
2022-10-11T15:23:17.569Z,57.90
2022-10-11T15:25:45.496Z,57.80
2022-10-11T15:28:31.374Z,57.70
2022-10-11T15:31:00.913Z,57.50
2022-10-11T15:33:29.837Z,57.70
2022-10-11T15:35:57.769Z,57.70
2022-10-11T15:38:25.870Z,57.90
2022-10-11T15:40:54.659Z,57.80
2022-10-11T15:43:25.001Z,57.70
2022-10-11T15:45:54.818Z,58.20
2022-10-11T15:48:26.960Z,57.50
2022-10-11T15:50:56.164Z,57.30
2022-10-11T15:53:28.586Z,57.20
2022-10-11T15:55:59.228Z,57.40
2022-10-11T15:58:38.589Z,57.20
2022-10-11T16:01:09.963Z,57.20
2022-10-11T16:03:38.003Z,57.40
2022-10-11T16:06:06.124Z,57.60
2022-10-11T16:08:35.140Z,57.70
2022-10-11T16:11:04.058Z,57.80
2022-10-11T16:13:32.694Z,57.80
2022-10-11T16:16:02.473Z,58.10
2022-10-11T16:18:35.383Z,58.30
2022-10-11T16:21:10.221Z,58.50
2022-10-11T16:23:39.185Z,58.70
2022-10-11T16:26:09.843Z,58.90
2022-10-11T16:28:38.973Z,59.00
2022-10-11T16:31:13.474Z,59.20
2022-10-11T16:33:47.882Z,59.60
2022-10-11T16:36:40.342Z,59.90
2022-10-11T16:39:18.310Z,60.20
2022-10-11T16:41:47.027Z,60.60
2022-10-11T16:44:17.849Z,61.10
2022-10-11T16:46:49.024Z,61.60
2022-10-11T16:49:18.938Z,62.30
2022-10-11T16:51:47.199Z,62.70
2022-10-11T16:54:20.019Z,63.00
2022-10-11T16:56:50.105Z,63.40
2022-10-11T16:59:20.636Z,63.90
2022-10-11T17:01:49.300Z,64.40
2022-10-11T17:04:17.393Z,64.80
2022-10-11T17:06:45.406Z,65.10
2022-10-11T17:09:14.630Z,65.40
2022-10-11T17:11:43.071Z,65.50
2022-10-11T17:14:13.328Z,65.80
2022-10-11T17:16:42.436Z,66.50
2022-10-11T17:19:17.699Z,67.40
2022-10-11T17:21:47.837Z,68.40
2022-10-11T17:24:15.822Z,69.60
2022-10-11T17:26:43.622Z,70.90
2022-10-11T17:29:16.386Z,72.50
2022-10-11T17:31:48.981Z,74.30
2022-10-11T17:34:18.019Z,76.10
2022-10-11T17:36:46.713Z,78.30
2022-10-11T17:39:17.629Z,80.50
2022-10-11T17:41:48.574Z,83.10
2022-10-11T17:44:18.496Z,85.80
2022-10-11T17:46:48.382Z,88.60
2022-10-11T17:49:16.543Z,90.70
2022-10-11T17:51:44.869Z,91.70
2022-10-11T17:54:13.458Z,92.70
2022-10-11T17:56:42.979Z,93.50
2022-10-11T17:59:16.791Z,94.40
2022-10-11T18:01:45.629Z,95.50
2022-10-11T18:04:16.496Z,96.50
2022-10-11T18:06:46.529Z,97.50
2022-10-11T18:09:17.145Z,98.40
2022-10-11T18:11:46.617Z,99.20
2022-10-11T18:14:15.391Z,99.90
2022-10-11T18:16:43.218Z,99.90
2022-10-11T18:19:12.855Z,99.90
2022-10-11T18:21:42.104Z,99.90
2022-10-11T18:24:16.379Z,99.90
2022-10-11T18:26:47.268Z,99.90
2022-10-11T18:29:15.665Z,99.90
2022-10-11T18:31:43.809Z,99.90
2022-10-11T18:34:15.951Z,99.90
2022-10-11T18:36:46.427Z,99.90
2022-10-11T18:39:19.585Z,99.90
2022-10-11T18:41:48.232Z,99.90
2022-10-11T18:44:16.390Z,99.90
2022-10-11T18:46:45.742Z,99.90
2022-10-11T18:49:15.119Z,99.90
2022-10-11T18:51:46.579Z,99.90
2022-10-11T18:54:18.555Z,99.90
2022-10-11T18:56:49.489Z,99.90
2022-10-11T18:59:20.424Z,99.90
2022-10-11T19:01:54.359Z,99.90
2022-10-11T19:04:23.373Z,99.90
2022-10-11T19:06:53.434Z,99.90
2022-10-11T19:09:26.427Z,99.90
2022-10-11T19:11:56.841Z,99.90
2022-10-11T19:14:28.344Z,99.90
2022-10-11T19:16:57.855Z,99.90
2022-10-11T19:19:32.890Z,99.90
2022-10-11T19:22:03.383Z,99.90
2022-10-11T19:24:34.248Z,99.90
2022-10-11T19:27:03.408Z,99.90
2022-10-11T19:29:32.405Z,99.90
2022-10-11T19:32:01.490Z,99.90
2022-10-11T19:34:31.725Z,99.90
2022-10-11T19:37:01.255Z,99.90
2022-10-11T19:39:30.204Z,99.90
2022-10-11T19:41:58.017Z,99.90
2022-10-11T19:44:26.499Z,99.90
2022-10-11T19:46:54.742Z,99.90
2022-10-11T19:49:25.315Z,99.90
2022-10-11T19:51:55.541Z,99.90
2022-10-11T19:54:24.254Z,99.90
2022-10-11T19:56:54.561Z,99.90
2022-10-11T19:59:22.612Z,99.90
2022-10-11T20:01:55.334Z,99.90
2022-10-11T20:04:50.592Z,99.90
2022-10-11T20:07:11.726Z,99.90
2022-10-11T20:09:39.675Z,99.90
2022-10-11T20:12:08.022Z,99.90
2022-10-11T20:14:36.792Z,99.90
2022-10-11T20:17:05.916Z,99.90
2022-10-11T20:19:36.334Z,99.90
2022-10-11T20:22:07.308Z,99.90
2022-10-11T20:24:35.060Z,99.90
2022-10-11T20:27:05.534Z,99.90
2022-10-11T20:29:34.192Z,99.90
2022-10-11T20:32:02.607Z,99.90
2022-10-11T20:34:31.426Z,99.90
2022-10-11T20:36:59.426Z,99.90
2022-10-11T20:39:27.893Z,99.90
2022-10-11T20:41:55.937Z,99.90
2022-10-11T20:44:23.848Z,99.90
2022-10-11T20:46:52.201Z,99.90
2022-10-11T20:49:20.750Z,99.90
2022-10-11T20:51:49.468Z,99.90
2022-10-11T20:54:17.420Z,99.90
2022-10-11T20:56:45.452Z,99.90
2022-10-11T20:59:13.703Z,99.90
2022-10-11T21:01:41.921Z,99.90
2022-10-11T21:04:17.753Z,99.90
2022-10-11T21:06:46.477Z,99.90
2022-10-11T21:09:16.652Z,99.90
2022-10-11T21:11:46.260Z,99.90
2022-10-11T21:14:15.502Z,99.90
2022-10-11T21:16:44.556Z,99.90
2022-10-11T21:19:15.267Z,99.90
2022-10-11T21:21:45.019Z,99.90
2022-10-11T21:24:14.547Z,99.90
2022-10-11T21:26:42.929Z,99.90
2022-10-11T21:29:10.663Z,99.90
2022-10-11T21:31:40.570Z,99.90
2022-10-11T21:34:08.791Z,99.90
2022-10-11T21:36:36.638Z,99.90
2022-10-11T21:39:05.063Z,99.90
2022-10-11T21:41:34.048Z,99.90
2022-10-11T21:44:02.681Z,99.90
2022-10-11T21:47:01.374Z,99.90
2022-10-11T21:49:20.035Z,99.90
2022-10-11T21:51:47.951Z,99.90
2022-10-11T21:54:15.847Z,99.90
2022-10-11T21:56:43.872Z,99.90
2022-10-11T21:59:12.745Z,99.90
2022-10-11T22:01:41.788Z,99.90
2022-10-11T22:04:10.925Z,99.90
2022-10-11T22:06:39.728Z,99.90
2022-10-11T22:09:08.680Z,99.90
2022-10-11T22:11:37.495Z,99.90
2022-10-11T22:14:08.228Z,99.90
2022-10-11T22:16:36.435Z,99.90
2022-10-11T22:19:04.828Z,99.90
2022-10-11T22:21:33.641Z,99.90
2022-10-11T22:24:02.986Z,99.90
2022-10-11T22:26:35.676Z,99.90
2022-10-11T22:29:03.571Z,99.90
2022-10-11T22:31:32.492Z,99.90
2022-10-11T22:34:01.987Z,99.90
2022-10-11T22:36:30.674Z,99.90
2022-10-11T22:38:59.043Z,99.90
2022-10-11T22:41:27.129Z,99.90
2022-10-11T22:43:54.851Z,99.90
2022-10-11T22:46:22.565Z,99.90
2022-10-11T22:48:50.619Z,99.90
2022-10-11T22:51:19.063Z,99.90
2022-10-11T22:53:46.857Z,99.90
2022-10-11T22:56:15.110Z,99.90
2022-10-11T22:58:42.890Z,99.90
2022-10-11T23:01:13.483Z,99.90
2022-10-11T23:03:50.889Z,99.90
2022-10-11T23:06:21.010Z,99.90
2022-10-11T23:08:49.193Z,99.90
2022-10-11T23:11:17.239Z,99.90
2022-10-11T23:13:45.434Z,99.90
2022-10-11T23:16:13.551Z,99.90
2022-10-11T23:18:41.621Z,99.90
2022-10-11T23:21:11.218Z,99.90
2022-10-11T23:23:39.900Z,99.90
2022-10-11T23:26:13.487Z,99.90
2022-10-11T23:28:43.297Z,99.90
2022-10-11T23:31:14.143Z,99.90
2022-10-11T23:33:43.529Z,99.90
2022-10-11T23:36:18.200Z,99.90
2022-10-11T23:38:50.860Z,99.90
2022-10-11T23:41:20.361Z,99.90
2022-10-11T23:43:48.583Z,99.90
2022-10-11T23:46:16.834Z,99.90
2022-10-11T23:48:44.914Z,99.90
2022-10-11T23:51:13.546Z,99.90
2022-10-11T23:53:42.423Z,99.90
2022-10-11T23:56:12.213Z,99.90
2022-10-11T23:58:41.126Z,99.90
